sensor_id;sensor_type;location;lat;lon;timestamp;temperature;humidity
32506;DHT22;18955;51.224;8.482;2024-03-23T00:54:17;11.00;81.00
32506;DHT22;18955;51.224;8.482;2024-03-23T00:56:44;10.90;81.20
32506;DHT22;18955;51.224;8.482;2024-03-23T00:59:10;10.80;81.70
32506;DHT22;18955;51.224;8.482;2024-03-23T01:01:36;10.70;82.10
32506;DHT22;18955;51.224;8.482;2024-03-23T01:04:03;10.60;82.40
32506;DHT22;18955;51.224;8.482;2024-03-23T01:06:29;10.50;82.60
32506;DHT22;18955;51.224;8.482;2024-03-23T01:08:55;10.40;82.70
32506;DHT22;18955;51.224;8.482;2024-03-23T01:11:21;10.40;82.90
32506;DHT22;18955;51.224;8.482;2024-03-23T01:13:47;10.40;82.90
32506;DHT22;18955;51.224;8.482;2024-03-23T01:16:14;10.90;81.00
32506;DHT22;18955;51.224;8.482;2024-03-23T01:18:40;11.00;80.90
32506;DHT22;18955;51.224;8.482;2024-03-23T01:21:06;10.80;81.10
32506;DHT22;18955;51.224;8.482;2024-03-23T01:23:32;10.70;81.50
32506;DHT22;18955;51.224;8.482;2024-03-23T01:25:58;10.60;82.00
32506;DHT22;18955;51.224;8.482;2024-03-23T01:28:25;10.50;82.30
32506;DHT22;18955;51.224;8.482;2024-03-23T01:30:51;10.40;82.50
32506;DHT22;18955;51.224;8.482;2024-03-23T01:33:17;10.30;82.60
32506;DHT22;18955;51.224;8.482;2024-03-23T01:35:43;10.30;82.80
32506;DHT22;18955;51.224;8.482;2024-03-23T01:38:09;10.60;82.50
32506;DHT22;18955;51.224;8.482;2024-03-23T01:40:36;10.90;80.80
32506;DHT22;18955;51.224;8.482;2024-03-23T01:43:07;10.80;80.80
32506;DHT22;18955;51.224;8.482;2024-03-23T01:45:36;10.70;81.20
32506;DHT22;18955;51.224;8.482;2024-03-23T01:48:03;10.50;81.60
32506;DHT22;18955;51.224;8.482;2024-03-23T01:50:31;10.40;82.00
32506;DHT22;18955;51.224;8.482;2024-03-23T01:53:03;10.40;82.30
32506;DHT22;18955;51.224;8.482;2024-03-23T01:55:32;10.30;82.50
32506;DHT22;18955;51.224;8.482;2024-03-23T01:57:58;10.20;82.70
32506;DHT22;18955;51.224;8.482;2024-03-23T02:00:25;10.50;82.20
32506;DHT22;18955;51.224;8.482;2024-03-23T02:02:53;10.80;80.70
32506;DHT22;18955;51.224;8.482;2024-03-23T02:05:19;10.70;80.70
32506;DHT22;18955;51.224;8.482;2024-03-23T02:07:45;10.60;81.20
32506;DHT22;18955;51.224;8.482;2024-03-23T02:10:12;10.40;81.50
32506;DHT22;18955;51.224;8.482;2024-03-23T02:12:41;10.30;82.00
32506;DHT22;18955;51.224;8.482;2024-03-23T02:15:07;10.30;82.30
32506;DHT22;18955;51.224;8.482;2024-03-23T02:17:35;10.10;82.40
32506;DHT22;18955;51.224;8.482;2024-03-23T02:20:03;10.10;82.60
32506;DHT22;18955;51.224;8.482;2024-03-23T02:22:38;10.60;81.10
32506;DHT22;18955;51.224;8.482;2024-03-23T02:25:06;10.70;80.60
32506;DHT22;18955;51.224;8.482;2024-03-23T02:27:33;10.50;80.60
32506;DHT22;18955;51.224;8.482;2024-03-23T02:30:01;10.40;81.20
32506;DHT22;18955;51.224;8.482;2024-03-23T02:32:27;10.30;81.60
32506;DHT22;18955;51.224;8.482;2024-03-23T02:34:53;10.20;82.00
32506;DHT22;18955;51.224;8.482;2024-03-23T02:37:19;10.10;82.20
32506;DHT22;18955;51.224;8.482;2024-03-23T02:39:45;10.00;82.40
32506;DHT22;18955;51.224;8.482;2024-03-23T02:42:12;10.40;81.40
32506;DHT22;18955;51.224;8.482;2024-03-23T02:44:38;10.60;80.40
32506;DHT22;18955;51.224;8.482;2024-03-23T02:47:04;10.50;80.40
32506;DHT22;18955;51.224;8.482;2024-03-23T02:49:31;10.40;80.90
32506;DHT22;18955;51.224;8.482;2024-03-23T02:51:57;10.20;81.30
32506;DHT22;18955;51.224;8.482;2024-03-23T02:54:23;10.10;81.80
32506;DHT22;18955;51.224;8.482;2024-03-23T02:56:49;10.00;82.00
32506;DHT22;18955;51.224;8.482;2024-03-23T02:59:15;9.90;82.20
32506;DHT22;18955;51.224;8.482;2024-03-23T03:01:42;10.30;81.40
32506;DHT22;18955;51.224;8.482;2024-03-23T03:04:08;10.50;80.10
32506;DHT22;18955;51.224;8.482;2024-03-23T03:06:34;10.40;80.20
32506;DHT22;18955;51.224;8.482;2024-03-23T03:09:00;10.20;80.60
32506;DHT22;18955;51.224;8.482;2024-03-23T03:11:26;10.10;81.10
32506;DHT22;18955;51.224;8.482;2024-03-23T03:13:53;10.00;81.60
32506;DHT22;18955;51.224;8.482;2024-03-23T03:16:19;9.90;81.90
32506;DHT22;18955;51.224;8.482;2024-03-23T03:18:45;9.80;82.00
32506;DHT22;18955;51.224;8.482;2024-03-23T03:21:12;10.30;80.70
32506;DHT22;18955;51.224;8.482;2024-03-23T03:23:39;10.40;80.00
32506;DHT22;18955;51.224;8.482;2024-03-23T03:26:05;10.30;80.00
32506;DHT22;18955;51.224;8.482;2024-03-23T03:28:32;10.10;80.60
32506;DHT22;18955;51.224;8.482;2024-03-23T03:30:59;10.00;81.10
32506;DHT22;18955;51.224;8.482;2024-03-23T03:33:29;9.90;81.50
32506;DHT22;18955;51.224;8.482;2024-03-23T03:35:55;9.80;81.80
32506;DHT22;18955;51.224;8.482;2024-03-23T03:38:21;9.90;81.50
32506;DHT22;18955;51.224;8.482;2024-03-23T03:40:48;10.30;80.00
32506;DHT22;18955;51.224;8.482;2024-03-23T03:43:14;10.30;79.90
32506;DHT22;18955;51.224;8.482;2024-03-23T03:45:40;10.10;80.30
32506;DHT22;18955;51.224;8.482;2024-03-23T03:48:07;10.00;80.80
32506;DHT22;18955;51.224;8.482;2024-03-23T03:50:34;9.80;81.20
32506;DHT22;18955;51.224;8.482;2024-03-23T03:53:00;9.70;81.60
32506;DHT22;18955;51.224;8.482;2024-03-23T03:55:26;9.70;81.50
32506;DHT22;18955;51.224;8.482;2024-03-23T03:57:53;10.20;79.80
32506;DHT22;18955;51.224;8.482;2024-03-23T04:00:19;10.20;79.70
32506;DHT22;18955;51.224;8.482;2024-03-23T04:02:45;10.10;80.00
32506;DHT22;18955;51.224;8.482;2024-03-23T04:05:12;9.90;80.60
32506;DHT22;18955;51.224;8.482;2024-03-23T04:07:38;9.80;81.00
32506;DHT22;18955;51.224;8.482;2024-03-23T04:10:05;9.70;81.40
32506;DHT22;18955;51.224;8.482;2024-03-23T04:12:34;9.60;81.30
32506;DHT22;18955;51.224;8.482;2024-03-23T04:15:00;10.10;79.70
32506;DHT22;18955;51.224;8.482;2024-03-23T04:17:30;10.20;79.60
32506;DHT22;18955;51.224;8.482;2024-03-23T04:19:58;10.00;79.90
32506;DHT22;18955;51.224;8.482;2024-03-23T04:22:24;9.80;80.30
32506;DHT22;18955;51.224;8.482;2024-03-23T04:24:58;9.70;80.90
32506;DHT22;18955;51.224;8.482;2024-03-23T04:27:24;9.60;81.30
32506;DHT22;18955;51.224;8.482;2024-03-23T04:29:51;9.60;81.20
32506;DHT22;18955;51.224;8.482;2024-03-23T04:32:17;10.10;79.10
32506;DHT22;18955;51.224;8.482;2024-03-23T04:34:44;10.10;79.30
32506;DHT22;18955;51.224;8.482;2024-03-23T04:37:10;9.90;79.70
32506;DHT22;18955;51.224;8.482;2024-03-23T04:39:37;9.70;80.30
32506;DHT22;18955;51.224;8.482;2024-03-23T04:42:04;9.60;80.80
32506;DHT22;18955;51.224;8.482;2024-03-23T04:44:30;9.50;81.10
32506;DHT22;18955;51.224;8.482;2024-03-23T04:46:57;9.70;81.00
32506;DHT22;18955;51.224;8.482;2024-03-23T04:49:24;10.00;79.20
32506;DHT22;18955;51.224;8.482;2024-03-23T04:51:50;9.90;79.30
32506;DHT22;18955;51.224;8.482;2024-03-23T04:54:16;9.70;79.70
32506;DHT22;18955;51.224;8.482;2024-03-23T04:56:42;9.60;80.80
32506;DHT22;18955;51.224;8.482;2024-03-23T04:59:09;9.40;80.70
32506;DHT22;18955;51.224;8.482;2024-03-23T05:01:36;9.30;80.90
32506;DHT22;18955;51.224;8.482;2024-03-23T05:04:04;9.80;79.40
32506;DHT22;18955;51.224;8.482;2024-03-23T05:06:31;9.90;79.10
32506;DHT22;18955;51.224;8.482;2024-03-23T05:08:57;9.70;79.40
32506;DHT22;18955;51.224;8.482;2024-03-23T05:11:23;9.50;79.90
32506;DHT22;18955;51.224;8.482;2024-03-23T05:13:50;9.40;80.50
32506;DHT22;18955;51.224;8.482;2024-03-23T05:16:16;9.30;80.80
32506;DHT22;18955;51.224;8.482;2024-03-23T05:18:42;9.60;79.90
32506;DHT22;18955;51.224;8.482;2024-03-23T05:21:08;9.70;79.20
32506;DHT22;18955;51.224;8.482;2024-03-23T05:23:34;9.60;79.30
32506;DHT22;18955;51.224;8.482;2024-03-23T05:26:01;9.50;79.80
32506;DHT22;18955;51.224;8.482;2024-03-23T05:28:27;9.30;80.30
32506;DHT22;18955;51.224;8.482;2024-03-23T05:30:54;9.20;80.80
32506;DHT22;18955;51.224;8.482;2024-03-23T05:33:21;9.50;79.80
32506;DHT22;18955;51.224;8.482;2024-03-23T05:35:47;9.70;78.90
32506;DHT22;18955;51.224;8.482;2024-03-23T05:38:21;9.60;79.00
32506;DHT22;18955;51.224;8.482;2024-03-23T05:43:21;9.20;80.00
32506;DHT22;18955;51.224;8.482;2024-03-23T05:45:57;9.10;80.50
32506;DHT22;18955;51.224;8.482;2024-03-23T05:48:26;9.40;79.30
32506;DHT22;18955;51.224;8.482;2024-03-23T05:50:52;9.60;78.70
32506;DHT22;18955;51.224;8.482;2024-03-23T05:53:19;9.50;79.10
32506;DHT22;18955;51.224;8.482;2024-03-23T05:55:49;9.30;79.70
32506;DHT22;18955;51.224;8.482;2024-03-23T05:58:16;9.10;80.10
32506;DHT22;18955;51.224;8.482;2024-03-23T06:00:43;9.00;80.40
32506;DHT22;18955;51.224;8.482;2024-03-23T06:03:09;9.40;79.20
32506;DHT22;18955;51.224;8.482;2024-03-23T06:05:37;9.40;78.80
32506;DHT22;18955;51.224;8.482;2024-03-23T06:08:04;9.30;79.10
32506;DHT22;18955;51.224;8.482;2024-03-23T06:10:30;9.10;79.60
32506;DHT22;18955;51.224;8.482;2024-03-23T06:12:57;9.00;80.20
32506;DHT22;18955;51.224;8.482;2024-03-23T06:15:25;9.00;79.90
32506;DHT22;18955;51.224;8.482;2024-03-23T06:17:53;9.40;78.30
32506;DHT22;18955;51.224;8.482;2024-03-23T06:20:19;9.40;78.50
32506;DHT22;18955;51.224;8.482;2024-03-23T06:22:45;9.20;78.90
32506;DHT22;18955;51.224;8.482;2024-03-23T06:25:11;9.00;79.50
32506;DHT22;18955;51.224;8.482;2024-03-23T06:27:38;8.90;80.10
32506;DHT22;18955;51.224;8.482;2024-03-23T06:30:05;9.10;79.70
32506;DHT22;18955;51.224;8.482;2024-03-23T06:32:32;9.40;78.40
32506;DHT22;18955;51.224;8.482;2024-03-23T06:34:59;9.30;78.60
32506;DHT22;18955;51.224;8.482;2024-03-23T06:37:25;9.10;79.10
32506;DHT22;18955;51.224;8.482;2024-03-23T06:39:51;9.00;79.70
32506;DHT22;18955;51.224;8.482;2024-03-23T06:42:18;8.80;80.00
32506;DHT22;18955;51.224;8.482;2024-03-23T06:44:44;9.30;78.70
32506;DHT22;18955;51.224;8.482;2024-03-23T06:47:10;9.30;78.30
32506;DHT22;18955;51.224;8.482;2024-03-23T06:49:36;9.10;78.60
32506;DHT22;18955;51.224;8.482;2024-03-23T06:52:03;9.00;79.20
32506;DHT22;18955;51.224;8.482;2024-03-23T06:54:29;8.80;79.80
32506;DHT22;18955;51.224;8.482;2024-03-23T06:56:55;8.90;79.70
32506;DHT22;18955;51.224;8.482;2024-03-23T06:59:21;9.20;78.20
32506;DHT22;18955;51.224;8.482;2024-03-23T07:01:48;9.20;78.30
32506;DHT22;18955;51.224;8.482;2024-03-23T07:04:14;9.00;78.70
32506;DHT22;18955;51.224;8.482;2024-03-23T07:06:44;8.90;79.40
32506;DHT22;18955;51.224;8.482;2024-03-23T07:09:10;8.70;79.90
32506;DHT22;18955;51.224;8.482;2024-03-23T07:11:38;9.10;78.80
32506;DHT22;18955;51.224;8.482;2024-03-23T07:14:04;9.20;78.00
32506;DHT22;18955;51.224;8.482;2024-03-23T07:16:30;9.10;78.50
32506;DHT22;18955;51.224;8.482;2024-03-23T07:18:57;8.90;79.00
32506;DHT22;18955;51.224;8.482;2024-03-23T07:21:23;8.70;79.50
32506;DHT22;18955;51.224;8.482;2024-03-23T07:23:49;8.80;79.60
32506;DHT22;18955;51.224;8.482;2024-03-23T07:26:15;9.20;77.80
32506;DHT22;18955;51.224;8.482;2024-03-23T07:28:43;9.10;78.00
32506;DHT22;18955;51.224;8.482;2024-03-23T07:31:12;9.00;78.60
32506;DHT22;18955;51.224;8.482;2024-03-23T07:33:43;8.80;79.20
32506;DHT22;18955;51.224;8.482;2024-03-23T07:36:10;8.60;79.60
32506;DHT22;18955;51.224;8.482;2024-03-23T07:38:36;9.10;78.30
32506;DHT22;18955;51.224;8.482;2024-03-23T07:41:07;9.30;77.40
32506;DHT22;18955;51.224;8.482;2024-03-23T07:43:34;9.10;77.80
32506;DHT22;18955;51.224;8.482;2024-03-23T07:46:00;8.90;78.50
32506;DHT22;18955;51.224;8.482;2024-03-23T07:48:28;8.70;79.20
32506;DHT22;18955;51.224;8.482;2024-03-23T07:51:04;8.70;79.30
32506;DHT22;18955;51.224;8.482;2024-03-23T07:53:32;9.20;77.80
32506;DHT22;18955;51.224;8.482;2024-03-23T07:56:09;9.10;77.70
32506;DHT22;18955;51.224;8.482;2024-03-23T07:58:38;8.90;78.90
32506;DHT22;18955;51.224;8.482;2024-03-23T08:01:06;8.70;78.90
32506;DHT22;18955;51.224;8.482;2024-03-23T08:03:39;8.60;79.40
32506;DHT22;18955;51.224;8.482;2024-03-23T08:08:35;9.10;78.00
32506;DHT22;18955;51.224;8.482;2024-03-23T08:11:01;8.90;78.20
32506;DHT22;18955;51.224;8.482;2024-03-23T08:13:27;8.70;78.70
32506;DHT22;18955;51.224;8.482;2024-03-23T08:15:58;8.60;79.20
32506;DHT22;18955;51.224;8.482;2024-03-23T08:18:24;8.80;78.90
32506;DHT22;18955;51.224;8.482;2024-03-23T08:21:00;9.10;77.60
32506;DHT22;18955;51.224;8.482;2024-03-23T08:23:34;9.00;77.90
32506;DHT22;18955;51.224;8.482;2024-03-23T08:26:05;8.70;78.60
32506;DHT22;18955;51.224;8.482;2024-03-23T08:28:32;8.60;79.10
32506;DHT22;18955;51.224;8.482;2024-03-23T08:31:02;8.70;79.00
32506;DHT22;18955;51.224;8.482;2024-03-23T08:33:29;9.10;77.30
32506;DHT22;18955;51.224;8.482;2024-03-23T08:35:57;9.00;77.60
32506;DHT22;18955;51.224;8.482;2024-03-23T08:38:24;8.80;78.20
32506;DHT22;18955;51.224;8.482;2024-03-23T08:43:24;8.60;79.00
32506;DHT22;18955;51.224;8.482;2024-03-23T08:45:50;9.00;77.50
32506;DHT22;18955;51.224;8.482;2024-03-23T08:48:19;9.00;77.50
32506;DHT22;18955;51.224;8.482;2024-03-23T08:50:47;8.90;78.10
32506;DHT22;18955;51.224;8.482;2024-03-23T08:53:14;8.70;78.60
32506;DHT22;18955;51.224;8.482;2024-03-23T08:55:40;8.50;79.10
32506;DHT22;18955;51.224;8.482;2024-03-23T08:58:07;9.00;78.50
32506;DHT22;18955;51.224;8.482;2024-03-23T09:00:34;9.10;77.30
32506;DHT22;18955;51.224;8.482;2024-03-23T09:03:01;8.90;77.80
32506;DHT22;18955;51.224;8.482;2024-03-23T09:05:29;8.70;78.40
32506;DHT22;18955;51.224;8.482;2024-03-23T09:08:01;8.60;79.00
32506;DHT22;18955;51.224;8.482;2024-03-23T09:10:28;8.70;78.90
32506;DHT22;18955;51.224;8.482;2024-03-23T09:12:54;9.10;77.50
32506;DHT22;18955;51.224;8.482;2024-03-23T09:15:20;9.00;78.10
32506;DHT22;18955;51.224;8.482;2024-03-23T09:17:46;8.80;78.40
32506;DHT22;18955;51.224;8.482;2024-03-23T09:20:13;8.60;78.90
32506;DHT22;18955;51.224;8.482;2024-03-23T09:22:39;8.60;79.10
32506;DHT22;18955;51.224;8.482;2024-03-23T09:25:05;9.10;77.60
32506;DHT22;18955;51.224;8.482;2024-03-23T09:27:31;9.10;77.50
32506;DHT22;18955;51.224;8.482;2024-03-23T09:29:58;8.90;78.00
32506;DHT22;18955;51.224;8.482;2024-03-23T09:32:25;8.70;78.60
32506;DHT22;18955;51.224;8.482;2024-03-23T09:34:51;8.60;79.20
32506;DHT22;18955;51.224;8.482;2024-03-23T09:37:17;8.90;78.30
32506;DHT22;18955;51.224;8.482;2024-03-23T09:39:44;9.20;77.10
32506;DHT22;18955;51.224;8.482;2024-03-23T09:42:10;9.00;77.60
32506;DHT22;18955;51.224;8.482;2024-03-23T09:44:36;8.80;78.30
32506;DHT22;18955;51.224;8.482;2024-03-23T09:47:03;8.70;79.00
32506;DHT22;18955;51.224;8.482;2024-03-23T09:49:29;8.70;79.30
32506;DHT22;18955;51.224;8.482;2024-03-23T09:51:56;9.10;77.50
32506;DHT22;18955;51.224;8.482;2024-03-23T09:54:22;9.10;77.40
32506;DHT22;18955;51.224;8.482;2024-03-23T09:56:48;8.90;78.60
32506;DHT22;18955;51.224;8.482;2024-03-23T09:59:14;8.80;78.70
32506;DHT22;18955;51.224;8.482;2024-03-23T10:01:41;8.60;79.50
32506;DHT22;18955;51.224;8.482;2024-03-23T10:04:07;9.10;78.40
32506;DHT22;18955;51.224;8.482;2024-03-23T10:06:34;9.20;77.40
32506;DHT22;18955;51.224;8.482;2024-03-23T10:09:00;9.10;77.90
32506;DHT22;18955;51.224;8.482;2024-03-23T10:11:26;9.00;78.80
32506;DHT22;18955;51.224;8.482;2024-03-23T10:13:55;8.80;79.30
32506;DHT22;18955;51.224;8.482;2024-03-23T10:16:24;8.80;79.30
32506;DHT22;18955;51.224;8.482;2024-03-23T10:18:50;9.30;77.60
32506;DHT22;18955;51.224;8.482;2024-03-23T10:21:16;9.30;77.70
32506;DHT22;18955;51.224;8.482;2024-03-23T10:23:44;9.10;78.40
32506;DHT22;18955;51.224;8.482;2024-03-23T10:26:21;9.00;79.20
32506;DHT22;18955;51.224;8.482;2024-03-23T10:28:55;8.80;79.80
32506;DHT22;18955;51.224;8.482;2024-03-23T10:31:27;9.30;78.50
32506;DHT22;18955;51.224;8.482;2024-03-23T10:33:54;9.40;77.40
32506;DHT22;18955;51.224;8.482;2024-03-23T10:36:23;9.30;78.10
32506;DHT22;18955;51.224;8.482;2024-03-23T10:38:51;9.10;78.80
32506;DHT22;18955;51.224;8.482;2024-03-23T10:41:18;9.00;79.50
32506;DHT22;18955;51.224;8.482;2024-03-23T10:43:47;9.00;79.50
32506;DHT22;18955;51.224;8.482;2024-03-23T10:46:13;9.50;77.70
32506;DHT22;18955;51.224;8.482;2024-03-23T10:48:40;9.50;77.60
32506;DHT22;18955;51.224;8.482;2024-03-23T10:51:10;9.30;78.40
32506;DHT22;18955;51.224;8.482;2024-03-23T10:53:36;9.10;79.00
32506;DHT22;18955;51.224;8.482;2024-03-23T10:56:04;9.00;80.10
32506;DHT22;18955;51.224;8.482;2024-03-23T10:58:35;9.20;79.20
32506;DHT22;18955;51.224;8.482;2024-03-23T11:01:03;9.50;77.70
32506;DHT22;18955;51.224;8.482;2024-03-23T11:06:00;9.20;78.60
32506;DHT22;18955;51.224;8.482;2024-03-23T11:08:33;9.10;79.30
32506;DHT22;18955;51.224;8.482;2024-03-23T11:13:41;9.40;78.10
32506;DHT22;18955;51.224;8.482;2024-03-23T11:18:50;9.30;78.20
32506;DHT22;18955;51.224;8.482;2024-03-23T11:21:54;9.20;78.70
32506;DHT22;18955;51.224;8.482;2024-03-23T11:24:21;9.00;79.40
32506;DHT22;18955;51.224;8.482;2024-03-23T11:26:50;9.40;78.60
32506;DHT22;18955;51.224;8.482;2024-03-23T11:29:17;9.60;77.40
32506;DHT22;18955;51.224;8.482;2024-03-23T11:31:47;9.50;77.90
32506;DHT22;18955;51.224;8.482;2024-03-23T11:34:15;9.30;78.90
32506;DHT22;18955;51.224;8.482;2024-03-23T11:36:44;9.20;79.60
32506;DHT22;18955;51.224;8.482;2024-03-23T11:39:19;9.10;79.90
32506;DHT22;18955;51.224;8.482;2024-03-23T11:44:20;9.60;77.80
32506;DHT22;18955;51.224;8.482;2024-03-23T11:46:48;9.40;78.50
32506;DHT22;18955;51.224;8.482;2024-03-23T11:51:52;9.20;79.70
32506;DHT22;18955;51.224;8.482;2024-03-23T11:54:21;9.30;79.70
32506;DHT22;18955;51.224;8.482;2024-03-23T11:59:50;9.60;77.80
32506;DHT22;18955;51.224;8.482;2024-03-23T12:02:18;9.40;78.60
32506;DHT22;18955;51.224;8.482;2024-03-23T12:04:44;9.20;79.40
32506;DHT22;18955;51.224;8.482;2024-03-23T12:09:41;9.50;78.70
32506;DHT22;18955;51.224;8.482;2024-03-23T12:12:14;9.70;77.80
32506;DHT22;18955;51.224;8.482;2024-03-23T12:14:44;9.60;78.10
32506;DHT22;18955;51.224;8.482;2024-03-23T12:17:14;9.40;79.00
32506;DHT22;18955;51.224;8.482;2024-03-23T12:19:41;9.20;79.50
32506;DHT22;18955;51.224;8.482;2024-03-23T12:22:09;9.10;79.70
32506;DHT22;18955;51.224;8.482;2024-03-23T12:24:35;9.60;78.20
32506;DHT22;18955;51.224;8.482;2024-03-23T12:27:02;9.70;77.70
32506;DHT22;18955;51.224;8.482;2024-03-23T12:29:32;9.50;78.20
32506;DHT22;18955;51.224;8.482;2024-03-23T12:32:02;9.40;78.70
32506;DHT22;18955;51.224;8.482;2024-03-23T12:34:29;9.20;79.50
32506;DHT22;18955;51.224;8.482;2024-03-23T12:36:56;9.20;79.60
32506;DHT22;18955;51.224;8.482;2024-03-23T12:39:22;9.70;77.90
32506;DHT22;18955;51.224;8.482;2024-03-23T12:41:49;9.70;77.60
32506;DHT22;18955;51.224;8.482;2024-03-23T12:44:15;9.50;78.20
32506;DHT22;18955;51.224;8.482;2024-03-23T12:46:42;9.30;78.70
32506;DHT22;18955;51.224;8.482;2024-03-23T12:49:08;9.20;79.20
32506;DHT22;18955;51.224;8.482;2024-03-23T12:51:34;9.20;79.50
32506;DHT22;18955;51.224;8.482;2024-03-23T12:54:01;9.70;77.70
32506;DHT22;18955;51.224;8.482;2024-03-23T12:56:27;9.70;77.40
32506;DHT22;18955;51.224;8.482;2024-03-23T12:58:57;9.50;77.90
32506;DHT22;18955;51.224;8.482;2024-03-23T13:01:26;9.40;78.50
32506;DHT22;18955;51.224;8.482;2024-03-23T13:03:53;9.30;79.50
32506;DHT22;18955;51.224;8.482;2024-03-23T13:06:19;9.30;79.30
32506;DHT22;18955;51.224;8.482;2024-03-23T13:08:46;9.80;77.60
32506;DHT22;18955;51.224;8.482;2024-03-23T13:11:12;9.70;77.40
32506;DHT22;18955;51.224;8.482;2024-03-23T13:13:40;9.60;78.50
32506;DHT22;18955;51.224;8.482;2024-03-23T13:16:08;9.50;79.10
32506;DHT22;18955;51.224;8.482;2024-03-23T13:18:34;9.40;79.50
32506;DHT22;18955;51.224;8.482;2024-03-23T13:21:01;9.40;79.20
32506;DHT22;18955;51.224;8.482;2024-03-23T13:23:27;9.90;77.30
32506;DHT22;18955;51.224;8.482;2024-03-23T13:25:54;9.90;77.40
32506;DHT22;18955;51.224;8.482;2024-03-23T13:28:22;9.70;78.50
32506;DHT22;18955;51.224;8.482;2024-03-23T13:30:56;9.60;78.40
32506;DHT22;18955;51.224;8.482;2024-03-23T13:33:22;9.40;79.00
32506;DHT22;18955;51.224;8.482;2024-03-23T13:35:50;9.50;79.00
32506;DHT22;18955;51.224;8.482;2024-03-23T13:38:16;10.00;77.40
32506;DHT22;18955;51.224;8.482;2024-03-23T13:43:20;9.70;77.80
32506;DHT22;18955;51.224;8.482;2024-03-23T13:45:47;9.60;78.40
32506;DHT22;18955;51.224;8.482;2024-03-23T13:48:19;9.40;78.90
32506;DHT22;18955;51.224;8.482;2024-03-23T13:50:45;9.50;79.30
32506;DHT22;18955;51.224;8.482;2024-03-23T13:53:14;9.90;77.50
32506;DHT22;18955;51.224;8.482;2024-03-23T13:55:49;9.90;77.40
32506;DHT22;18955;51.224;8.482;2024-03-23T13:58:16;9.70;78.10
32506;DHT22;18955;51.224;8.482;2024-03-23T14:00:42;9.50;78.60
32506;DHT22;18955;51.224;8.482;2024-03-23T14:03:13;9.40;79.40
32506;DHT22;18955;51.224;8.482;2024-03-23T14:05:40;9.50;79.40
32506;DHT22;18955;51.224;8.482;2024-03-23T14:08:07;10.00;77.50
32506;DHT22;18955;51.224;8.482;2024-03-23T14:10:34;10.00;77.70
32506;DHT22;18955;51.224;8.482;2024-03-23T14:13:05;9.80;77.60
32506;DHT22;18955;51.224;8.482;2024-03-23T14:15:31;9.70;78.20
32506;DHT22;18955;51.224;8.482;2024-03-23T14:17:57;9.60;79.00
32506;DHT22;18955;51.224;8.482;2024-03-23T14:20:24;9.50;79.00
32506;DHT22;18955;51.224;8.482;2024-03-23T14:22:50;10.00;77.40
32506;DHT22;18955;51.224;8.482;2024-03-23T14:25:17;10.00;77.10
32506;DHT22;18955;51.224;8.482;2024-03-23T14:27:46;9.90;78.20
32506;DHT22;18955;51.224;8.482;2024-03-23T14:30:13;9.70;78.30
32506;DHT22;18955;51.224;8.482;2024-03-23T14:32:40;9.70;78.80
32506;DHT22;18955;51.224;8.482;2024-03-23T14:35:06;9.70;78.90
32506;DHT22;18955;51.224;8.482;2024-03-23T14:37:39;10.10;77.30
32506;DHT22;18955;51.224;8.482;2024-03-23T14:40:08;10.30;76.50
32506;DHT22;18955;51.224;8.482;2024-03-23T14:42:34;10.30;76.70
32506;DHT22;18955;51.224;8.482;2024-03-23T14:45:00;10.20;77.30
32506;DHT22;18955;51.224;8.482;2024-03-23T14:47:26;10.10;77.60
32506;DHT22;18955;51.224;8.482;2024-03-23T14:49:53;10.10;77.70
32506;DHT22;18955;51.224;8.482;2024-03-23T14:52:19;10.20;77.60
32506;DHT22;18955;51.224;8.482;2024-03-23T14:54:48;10.70;76.00
32506;DHT22;18955;51.224;8.482;2024-03-23T14:57:15;10.70;75.50
32506;DHT22;18955;51.224;8.482;2024-03-23T14:59:41;10.50;76.10
32506;DHT22;18955;51.224;8.482;2024-03-23T15:02:07;10.50;76.70
32506;DHT22;18955;51.224;8.482;2024-03-23T15:04:34;10.40;76.90
32506;DHT22;18955;51.224;8.482;2024-03-23T15:07:01;10.40;77.00
32506;DHT22;18955;51.224;8.482;2024-03-23T15:09:28;10.60;76.70
32506;DHT22;18955;51.224;8.482;2024-03-23T15:11:54;10.90;75.30
32506;DHT22;18955;51.224;8.482;2024-03-23T15:14:23;10.90;75.10
32506;DHT22;18955;51.224;8.482;2024-03-23T15:16:49;10.80;75.80
32506;DHT22;18955;51.224;8.482;2024-03-23T15:19:16;10.60;76.60
32506;DHT22;18955;51.224;8.482;2024-03-23T15:21:43;10.40;76.80
32506;DHT22;18955;51.224;8.482;2024-03-23T15:24:10;10.30;77.30
32506;DHT22;18955;51.224;8.482;2024-03-23T15:26:39;10.40;77.40
32506;DHT22;18955;51.224;8.482;2024-03-23T15:29:06;10.80;76.20
32506;DHT22;18955;51.224;8.482;2024-03-23T15:31:43;10.70;76.30
32506;DHT22;18955;51.224;8.482;2024-03-23T15:34:09;10.50;76.80
32506;DHT22;18955;51.224;8.482;2024-03-23T15:36:38;10.30;77.50
32506;DHT22;18955;51.224;8.482;2024-03-23T15:39:05;10.20;78.00
32506;DHT22;18955;51.224;8.482;2024-03-23T15:41:32;10.10;78.10
32506;DHT22;18955;51.224;8.482;2024-03-23T15:44:00;10.30;77.80
32506;DHT22;18955;51.224;8.482;2024-03-23T15:46:26;10.60;76.70
32506;DHT22;18955;51.224;8.482;2024-03-23T15:48:52;10.60;76.80
32506;DHT22;18955;51.224;8.482;2024-03-23T15:51:20;10.40;77.80
32506;DHT22;18955;51.224;8.482;2024-03-23T15:53:46;10.20;78.50
32506;DHT22;18955;51.224;8.482;2024-03-23T15:56:12;10.10;78.80
32506;DHT22;18955;51.224;8.482;2024-03-23T15:58:39;10.00;78.90
32506;DHT22;18955;51.224;8.482;2024-03-23T16:01:07;10.40;77.90
32506;DHT22;18955;51.224;8.482;2024-03-23T16:03:37;10.60;76.80
32506;DHT22;18955;51.224;8.482;2024-03-23T16:06:05;10.50;77.40
32506;DHT22;18955;51.224;8.482;2024-03-23T16:08:33;10.30;77.90
32506;DHT22;18955;51.224;8.482;2024-03-23T16:11:03;10.20;78.50
32506;DHT22;18955;51.224;8.482;2024-03-23T16:13:30;10.00;78.80
32506;DHT22;18955;51.224;8.482;2024-03-23T16:16:02;10.00;78.90
32506;DHT22;18955;51.224;8.482;2024-03-23T16:18:37;10.50;77.40
32506;DHT22;18955;51.224;8.482;2024-03-23T16:21:07;10.50;76.90
32506;DHT22;18955;51.224;8.482;2024-03-23T16:23:34;10.30;77.70
32506;DHT22;18955;51.224;8.482;2024-03-23T16:26:00;10.20;78.00
32506;DHT22;18955;51.224;8.482;2024-03-23T16:28:30;10.10;78.80
32506;DHT22;18955;51.224;8.482;2024-03-23T16:31:00;10.00;79.40
32506;DHT22;18955;51.224;8.482;2024-03-23T16:33:27;10.00;78.60
32506;DHT22;18955;51.224;8.482;2024-03-23T16:35:56;10.40;77.00
32506;DHT22;18955;51.224;8.482;2024-03-23T16:38:23;10.40;76.90
32506;DHT22;18955;51.224;8.482;2024-03-23T16:40:56;10.30;77.90
32506;DHT22;18955;51.224;8.482;2024-03-23T16:43:23;10.10;78.40
32506;DHT22;18955;51.224;8.482;2024-03-23T16:45:57;10.00;79.10
32506;DHT22;18955;51.224;8.482;2024-03-23T16:48:25;9.90;79.60
32506;DHT22;18955;51.224;8.482;2024-03-23T16:50:52;10.30;77.70
32506;DHT22;18955;51.224;8.482;2024-03-23T16:53:18;10.50;76.90
32506;DHT22;18955;51.224;8.482;2024-03-23T16:55:45;10.30;77.20
32506;DHT22;18955;51.224;8.482;2024-03-23T16:58:11;10.20;78.00
32506;DHT22;18955;51.224;8.482;2024-03-23T17:00:38;10.00;78.60
32506;DHT22;18955;51.224;8.482;2024-03-23T17:03:04;9.90;79.20